PWSweather.com
Personal Weather Stations
Station Observations
ANTHEMNP
Anthem North Parkside, Anthem, AZ 85086

Anthem North ParksideAnthem, AZ 85086

Lat: 33.876464, Lon: -112.13861199999997

Elevation: 1930

Station Type: Davis Vantage Vue with Pro 2 console

http://www.azjerry.com/ANPW/wxindex.php

High Low Average
Temperature 89.4°F31.9°C 67.9°F19.9°C 78.9°F26.1°C
Dew Point 56.0°F13.3°C 45.0°F7.2°C 51.0°F10.6°C
Winds 6.0 mph 9.7 kmh Calm Calm 2.0 mph SE3.2 kmh SE
Wind Gusts 14.0 mph22.5 kmh 1.0 mph1.6 kmh 5.0 mph8.0 kmh
Humidity 58% 25% 39%
Pressure 29.98 in1015.2 mb 29.89 in1012.2 mb -
Precipitation 0.00 in0.0 mm - -
Hour Temp Dew Point Humidity Winds Wind Gusts Pressure Precip Precip Rate Daily Precip Total
12:00 AM 74.3°F23.5°C 53.0°F11.7°C 48% 1.2 mph NNE1.9 kmh NNE 2.0 mph3.2 kmh 29.89 in1012.2 mb 0.00 in0.0 mm 0.00 in0.0 mm 0.00 in0.0 mm
12:10 AM 73.9°F23.3°C 53.0°F11.7°C 49% 1.2 mph N1.9 kmh N 3.0 mph4.8 kmh 29.89 in1012.2 mb 0.00 in0.0 mm 0.00 in0.0 mm 0.00 in0.0 mm
12:20 AM 73.4°F23.0°C 54.0°F12.2°C 50% 2.0 mph NNE3.2 kmh NNE 3.0 mph4.8 kmh 29.89 in1012.2 mb 0.00 in0.0 mm 0.00 in0.0 mm 0.00 in0.0 mm
12:30 AM 73.5°F23.1°C 53.0°F11.7°C 49% 2.0 mph NNE3.2 kmh NNE 4.0 mph6.4 kmh 29.90 in1012.5 mb 0.00 in0.0 mm 0.00 in0.0 mm 0.00 in0.0 mm
12:40 AM 73.9°F23.3°C 53.0°F11.7°C 48% 2.4 mph N3.9 kmh N 5.0 mph8.0 kmh 29.90 in1012.5 mb 0.00 in0.0 mm 0.00 in0.0 mm 0.00 in0.0 mm
12:50 AM 74.2°F23.4°C 53.0°F11.7°C 47% 2.3 mph NNE3.7 kmh NNE 4.0 mph6.4 kmh 29.90 in1012.5 mb 0.00 in0.0 mm 0.00 in0.0 mm 0.00 in0.0 mm
01:00 AM 74.1°F23.4°C 52.0°F11.1°C 47% 2.6 mph N4.2 kmh N 5.0 mph8.0 kmh 29.90 in1012.5 mb 0.00 in0.0 mm 0.00 in0.0 mm 0.00 in0.0 mm
01:10 AM 74.0°F23.3°C 53.0°F11.7°C 48% 2.7 mph N4.3 kmh N 7.0 mph11.3 kmh 29.90 in1012.5 mb 0.00 in0.0 mm 0.00 in0.0 mm 0.00 in0.0 mm
01:20 AM 73.9°F23.3°C 53.0°F11.7°C 48% 2.4 mph N3.9 kmh N 6.0 mph9.7 kmh 29.90 in1012.5 mb 0.00 in0.0 mm 0.00 in0.0 mm 0.00 in0.0 mm
01:30 AM 73.7°F23.2°C 53.0°F11.7°C 48% 2.5 mph N4.0 kmh N 4.0 mph6.4 kmh 29.90 in1012.5 mb 0.00 in0.0 mm 0.00 in0.0 mm 0.00 in0.0 mm
01:40 AM 73.8°F23.2°C 53.0°F11.7°C 48% 2.8 mph N4.5 kmh N 6.0 mph9.7 kmh 29.90 in1012.5 mb 0.00 in0.0 mm 0.00 in0.0 mm 0.00 in0.0 mm
01:50 AM 74.1°F23.4°C 52.0°F11.1°C 47% 3.1 mph N5.0 kmh N 7.0 mph11.3 kmh 29.90 in1012.5 mb 0.00 in0.0 mm 0.00 in0.0 mm 0.00 in0.0 mm
02:00 AM 73.6°F23.1°C 53.0°F11.7°C 48% 3.6 mph NE5.8 kmh NE 7.0 mph11.3 kmh 29.90 in1012.5 mb 0.00 in0.0 mm 0.00 in0.0 mm 0.00 in0.0 mm
02:10 AM 73.7°F23.2°C 53.0°F11.7°C 48% 4.0 mph N6.4 kmh N 7.0 mph11.3 kmh 29.90 in1012.5 mb 0.00 in0.0 mm 0.00 in0.0 mm 0.00 in0.0 mm
02:20 AM 73.1°F22.8°C 53.0°F11.7°C 49% 3.2 mph NE5.1 kmh NE 6.0 mph9.7 kmh 29.90 in1012.5 mb 0.00 in0.0 mm 0.00 in0.0 mm 0.00 in0.0 mm
02:30 AM 72.7°F22.6°C 53.0°F11.7°C 50% 2.5 mph N4.0 kmh N 4.0 mph6.4 kmh 29.90 in1012.5 mb 0.00 in0.0 mm 0.00 in0.0 mm 0.00 in0.0 mm
02:40 AM 72.3°F22.4°C 53.0°F11.7°C 51% 2.6 mph N4.2 kmh N 5.0 mph8.0 kmh 29.90 in1012.5 mb 0.00 in0.0 mm 0.00 in0.0 mm 0.00 in0.0 mm
02:50 AM 72.0°F22.2°C 53.0°F11.7°C 51% 2.6 mph NNE4.2 kmh NNE 6.0 mph9.7 kmh 29.90 in1012.5 mb 0.00 in0.0 mm 0.00 in0.0 mm 0.00 in0.0 mm
03:00 AM 72.0°F22.2°C 53.0°F11.7°C 51% 3.0 mph NNE4.8 kmh NNE 5.0 mph8.0 kmh 29.90 in1012.5 mb 0.00 in0.0 mm 0.00 in0.0 mm 0.00 in0.0 mm
03:10 AM 71.7°F22.1°C 53.0°F11.7°C 52% 3.1 mph NNE5.0 kmh NNE 6.0 mph9.7 kmh 29.90 in1012.5 mb 0.00 in0.0 mm 0.00 in0.0 mm 0.00 in0.0 mm
03:20 AM 71.5°F21.9°C 53.0°F11.7°C 52% 4.1 mph NNE6.6 kmh NNE 8.0 mph12.9 kmh 29.90 in1012.5 mb 0.00 in0.0 mm 0.00 in0.0 mm 0.00 in0.0 mm
03:30 AM 71.6°F22.0°C 52.0°F11.1°C 51% 3.2 mph N5.1 kmh N 6.0 mph9.7 kmh 29.90 in1012.5 mb 0.00 in0.0 mm 0.00 in0.0 mm 0.00 in0.0 mm
03:40 AM 71.7°F22.1°C 53.0°F11.7°C 52% 2.4 mph NE3.9 kmh NE 4.0 mph6.4 kmh 29.90 in1012.5 mb 0.00 in0.0 mm 0.00 in0.0 mm 0.00 in0.0 mm
03:50 AM 71.6°F22.0°C 53.0°F11.7°C 52% 1.6 mph N2.6 kmh N 4.0 mph6.4 kmh 29.90 in1012.5 mb 0.00 in0.0 mm 0.00 in0.0 mm 0.00 in0.0 mm
04:00 AM 71.4°F21.9°C 53.0°F11.7°C 52% 2.7 mph NE4.3 kmh NE 4.0 mph6.4 kmh 29.91 in1012.9 mb 0.00 in0.0 mm 0.00 in0.0 mm 0.00 in0.0 mm
04:10 AM 71.2°F21.8°C 53.0°F11.7°C 52% 3.2 mph N5.1 kmh N 6.0 mph9.7 kmh 29.90 in1012.5 mb 0.00 in0.0 mm 0.00 in0.0 mm 0.00 in0.0 mm
04:20 AM 71.2°F21.8°C 53.0°F11.7°C 52% 4.2 mph N6.8 kmh N 7.0 mph11.3 kmh 29.91 in1012.9 mb 0.00 in0.0 mm 0.00 in0.0 mm 0.00 in0.0 mm
04:30 AM 70.9°F21.6°C 52.0°F11.1°C 52% 2.9 mph N4.7 kmh N 5.0 mph8.0 kmh 29.90 in1012.5 mb 0.00 in0.0 mm 0.00 in0.0 mm 0.00 in0.0 mm
04:40 AM 70.6°F21.4°C 52.0°F11.1°C 53% 2.0 mph NNE3.2 kmh NNE 4.0 mph6.4 kmh 29.91 in1012.9 mb 0.00 in0.0 mm 0.00 in0.0 mm 0.00 in0.0 mm
04:50 AM 71.5°F21.9°C 52.0°F11.1°C 51% 3.9 mph N6.3 kmh N 9.0 mph14.5 kmh 29.91 in1012.9 mb 0.00 in0.0 mm 0.00 in0.0 mm 0.00 in0.0 mm
05:00 AM 71.6°F22.0°C 52.0°F11.1°C 51% 3.8 mph NNE6.1 kmh NNE 9.0 mph14.5 kmh 29.91 in1012.9 mb 0.00 in0.0 mm 0.00 in0.0 mm 0.00 in0.0 mm
05:10 AM 70.5°F21.4°C 52.0°F11.1°C 53% 1.0 mph NNE1.6 kmh NNE 2.0 mph3.2 kmh 29.91 in1012.9 mb 0.00 in0.0 mm 0.00 in0.0 mm 0.00 in0.0 mm
05:20 AM 70.5°F21.4°C 52.0°F11.1°C 53% 1.2 mph NNE1.9 kmh NNE 5.0 mph8.0 kmh 29.92 in1013.2 mb 0.00 in0.0 mm 0.00 in0.0 mm 0.00 in0.0 mm
05:30 AM 70.1°F21.2°C 52.0°F11.1°C 53% 0.5 mph N0.8 kmh N 2.0 mph3.2 kmh 29.92 in1013.2 mb 0.00 in0.0 mm 0.00 in0.0 mm 0.00 in0.0 mm
05:40 AM 69.5°F20.8°C 52.0°F11.1°C 55% Calm Calm 1.0 mph1.6 kmh 29.92 in1013.2 mb 0.00 in0.0 mm 0.00 in0.0 mm 0.00 in0.0 mm
05:50 AM 68.9°F20.5°C 52.0°F11.1°C 56% 0.1 mph N0.2 kmh N 1.0 mph1.6 kmh 29.93 in1013.5 mb 0.00 in0.0 mm 0.00 in0.0 mm 0.00 in0.0 mm
06:00 AM 68.9°F20.5°C 52.0°F11.1°C 56% 1.5 mph NNE2.4 kmh NNE 4.0 mph6.4 kmh 29.93 in1013.5 mb 0.00 in0.0 mm 0.00 in0.0 mm 0.00 in0.0 mm
06:10 AM 68.7°F20.4°C 52.0°F11.1°C 56% 1.5 mph NE2.4 kmh NE 5.0 mph8.0 kmh 29.93 in1013.5 mb 0.00 in0.0 mm 0.00 in0.0 mm 0.00 in0.0 mm
06:20 AM 68.1°F20.1°C 52.0°F11.1°C 56% 0.2 mph NE0.3 kmh NE 1.0 mph1.6 kmh 29.94 in1013.9 mb 0.00 in0.0 mm 0.00 in0.0 mm 0.00 in0.0 mm
06:30 AM 68.0°F20.0°C 52.0°F11.1°C 57% 0.1 mph NE0.2 kmh NE 1.0 mph1.6 kmh 29.94 in1013.9 mb 0.00 in0.0 mm 0.00 in0.0 mm 0.00 in0.0 mm
06:40 AM 67.9°F19.9°C 52.0°F11.1°C 58% 0.3 mph NE0.5 kmh NE 1.0 mph1.6 kmh 29.94 in1013.9 mb 0.00 in0.0 mm 0.00 in0.0 mm 0.00 in0.0 mm
06:50 AM 68.3°F20.2°C 52.0°F11.1°C 57% 1.0 mph NNE1.6 kmh NNE 3.0 mph4.8 kmh 29.94 in1013.9 mb 0.00 in0.0 mm 0.00 in0.0 mm 0.00 in0.0 mm
07:00 AM 68.5°F20.3°C 52.0°F11.1°C 57% 1.3 mph N2.1 kmh N 3.0 mph4.8 kmh 29.95 in1014.2 mb 0.00 in0.0 mm 0.00 in0.0 mm 0.00 in0.0 mm
07:10 AM 68.9°F20.5°C 52.0°F11.1°C 56% 0.7 mph N1.1 kmh N 2.0 mph3.2 kmh 29.95 in1014.2 mb 0.00 in0.0 mm 0.00 in0.0 mm 0.00 in0.0 mm
07:20 AM 69.2°F20.7°C 53.0°F11.7°C 56% 1.0 mph N1.6 kmh N 3.0 mph4.8 kmh 29.95 in1014.2 mb 0.00 in0.0 mm 0.00 in0.0 mm 0.00 in0.0 mm
07:30 AM 69.6°F20.9°C 53.0°F11.7°C 56% Calm Calm 1.0 mph1.6 kmh 29.95 in1014.2 mb 0.00 in0.0 mm 0.00 in0.0 mm 0.00 in0.0 mm
07:40 AM 70.5°F21.4°C 54.0°F12.2°C 56% 0.4 mph N0.6 kmh N 2.0 mph3.2 kmh 29.96 in1014.6 mb 0.00 in0.0 mm 0.00 in0.0 mm 0.00 in0.0 mm
07:50 AM 71.3°F21.8°C 55.0°F12.8°C 56% Calm Calm 1.0 mph1.6 kmh 29.96 in1014.6 mb 0.00 in0.0 mm 0.00 in0.0 mm 0.00 in0.0 mm
08:00 AM 73.0°F22.8°C 54.0°F12.2°C 51% Calm Calm 1.0 mph1.6 kmh 29.97 in1014.9 mb 0.00 in0.0 mm 0.00 in0.0 mm 0.00 in0.0 mm
08:10 AM 74.5°F23.6°C 53.0°F11.7°C 47% 0.8 mph N1.3 kmh N 2.0 mph3.2 kmh 29.98 in1015.2 mb 0.00 in0.0 mm 0.00 in0.0 mm 0.00 in0.0 mm
08:20 AM 77.4°F25.2°C 54.0°F12.2°C 44% 0.5 mph ESE0.8 kmh ESE 3.0 mph4.8 kmh 29.98 in1015.2 mb 0.00 in0.0 mm 0.00 in0.0 mm 0.00 in0.0 mm
08:30 AM 79.6°F26.4°C 54.0°F12.2°C 41% 0.7 mph SE1.1 kmh SE 3.0 mph4.8 kmh 29.98 in1015.2 mb 0.00 in0.0 mm 0.00 in0.0 mm 0.00 in0.0 mm
08:40 AM 80.6°F27.0°C 54.0°F12.2°C 40% 1.2 mph SE1.9 kmh SE 4.0 mph6.4 kmh 29.98 in1015.2 mb 0.00 in0.0 mm 0.00 in0.0 mm 0.00 in0.0 mm
08:50 AM 80.5°F26.9°C 54.0°F12.2°C 40% 1.2 mph S1.9 kmh S 4.0 mph6.4 kmh 29.98 in1015.2 mb 0.00 in0.0 mm 0.00 in0.0 mm 0.00 in0.0 mm
09:00 AM 81.2°F27.3°C 54.0°F12.2°C 39% 0.7 mph SE1.1 kmh SE 3.0 mph4.8 kmh 29.98 in1015.2 mb 0.00 in0.0 mm 0.00 in0.0 mm 0.00 in0.0 mm
09:10 AM 81.1°F27.3°C 54.0°F12.2°C 39% 1.0 mph SE1.6 kmh SE 4.0 mph6.4 kmh 29.98 in1015.2 mb 0.00 in0.0 mm 0.00 in0.0 mm 0.00 in0.0 mm
09:20 AM 81.8°F27.7°C 54.0°F12.2°C 38% 0.8 mph SW1.3 kmh SW 3.0 mph4.8 kmh 29.98 in1015.2 mb 0.00 in0.0 mm 0.00 in0.0 mm 0.00 in0.0 mm
09:30 AM 81.7°F27.6°C 53.0°F11.7°C 37% 1.6 mph SW2.6 kmh SW 5.0 mph8.0 kmh 29.98 in1015.2 mb 0.00 in0.0 mm 0.00 in0.0 mm 0.00 in0.0 mm
09:40 AM 81.6°F27.6°C 53.0°F11.7°C 37% 1.6 mph SSE2.6 kmh SSE 5.0 mph8.0 kmh 29.98 in1015.2 mb 0.00 in0.0 mm 0.00 in0.0 mm 0.00 in0.0 mm
09:50 AM 82.3°F27.9°C 53.0°F11.7°C 37% 1.1 mph SE1.8 kmh SE 5.0 mph8.0 kmh 29.98 in1015.2 mb 0.00 in0.0 mm 0.00 in0.0 mm 0.00 in0.0 mm
10:00 AM 82.8°F28.2°C 54.0°F12.2°C 37% 1.1 mph SE1.8 kmh SE 4.0 mph6.4 kmh 29.98 in1015.2 mb 0.00 in0.0 mm 0.00 in0.0 mm 0.00 in0.0 mm
10:10 AM 83.8°F28.8°C 54.0°F12.2°C 36% 1.0 mph WSW1.6 kmh WSW 4.0 mph6.4 kmh 29.98 in1015.2 mb 0.00 in0.0 mm 0.00 in0.0 mm 0.00 in0.0 mm
10:20 AM 83.6°F28.7°C 50.0°F10.0°C 31% 2.1 mph SW3.4 kmh SW 6.0 mph9.7 kmh 29.98 in1015.2 mb 0.00 in0.0 mm 0.00 in0.0 mm 0.00 in0.0 mm
10:30 AM 84.1°F28.9°C 50.0°F10.0°C 31% 1.9 mph SSW3.1 kmh SSW 4.0 mph6.4 kmh 29.98 in1015.2 mb 0.00 in0.0 mm 0.00 in0.0 mm 0.00 in0.0 mm
10:40 AM 84.1°F28.9°C 49.0°F9.4°C 30% 2.4 mph SE3.9 kmh SE 6.0 mph9.7 kmh 29.98 in1015.2 mb 0.00 in0.0 mm 0.00 in0.0 mm 0.00 in0.0 mm
10:50 AM 84.9°F29.4°C 49.0°F9.4°C 29% 1.6 mph S2.6 kmh S 5.0 mph8.0 kmh 29.98 in1015.2 mb 0.00 in0.0 mm 0.00 in0.0 mm 0.00 in0.0 mm
11:00 AM 84.9°F29.4°C 48.0°F8.9°C 28% 3.0 mph SSW4.8 kmh SSW 5.0 mph8.0 kmh 29.98 in1015.2 mb 0.00 in0.0 mm 0.00 in0.0 mm 0.00 in0.0 mm
11:10 AM 85.8°F29.9°C 50.0°F10.0°C 29% 1.0 mph WNW1.6 kmh WNW 4.0 mph6.4 kmh 29.98 in1015.2 mb 0.00 in0.0 mm 0.00 in0.0 mm 0.00 in0.0 mm
11:20 AM 85.7°F29.8°C 50.0°F10.0°C 29% 2.9 mph SW4.7 kmh SW 7.0 mph11.3 kmh 29.98 in1015.2 mb 0.00 in0.0 mm 0.00 in0.0 mm 0.00 in0.0 mm
11:30 AM 86.0°F30.0°C 49.0°F9.4°C 28% 1.4 mph WNW2.3 kmh WNW 7.0 mph11.3 kmh 29.98 in1015.2 mb 0.00 in0.0 mm 0.00 in0.0 mm 0.00 in0.0 mm
11:40 AM 86.4°F30.2°C 50.0°F10.0°C 28% 1.7 mph SSW2.7 kmh SSW 7.0 mph11.3 kmh 29.97 in1014.9 mb 0.00 in0.0 mm 0.00 in0.0 mm 0.00 in0.0 mm
11:50 AM 86.8°F30.4°C 50.0°F10.0°C 28% 1.6 mph SW2.6 kmh SW 7.0 mph11.3 kmh 29.97 in1014.9 mb 0.00 in0.0 mm 0.00 in0.0 mm 0.00 in0.0 mm
12:00 PM 87.1°F30.6°C 51.0°F10.6°C 29% 1.9 mph WNW3.1 kmh WNW 7.0 mph11.3 kmh 29.97 in1014.9 mb 0.00 in0.0 mm 0.00 in0.0 mm 0.00 in0.0 mm
12:10 PM 86.9°F30.5°C 51.0°F10.6°C 29% 1.5 mph SSW2.4 kmh SSW 6.0 mph9.7 kmh 29.96 in1014.6 mb 0.00 in0.0 mm 0.00 in0.0 mm 0.00 in0.0 mm
12:20 PM 86.7°F30.4°C 52.0°F11.1°C 30% 2.7 mph S4.3 kmh S 9.0 mph14.5 kmh 29.96 in1014.6 mb 0.00 in0.0 mm 0.00 in0.0 mm 0.00 in0.0 mm
12:30 PM 86.9°F30.5°C 51.0°F10.6°C 29% 2.8 mph SW4.5 kmh SW 6.0 mph9.7 kmh 29.96 in1014.6 mb 0.00 in0.0 mm 0.00 in0.0 mm 0.00 in0.0 mm
12:40 PM 87.2°F30.7°C 54.0°F12.2°C 32% 2.4 mph SW3.9 kmh SW 7.0 mph11.3 kmh 29.96 in1014.6 mb 0.00 in0.0 mm 0.00 in0.0 mm 0.00 in0.0 mm
12:50 PM 87.3°F30.7°C 53.0°F11.7°C 31% 4.1 mph SW6.6 kmh SW 9.0 mph14.5 kmh 29.95 in1014.2 mb 0.00 in0.0 mm 0.00 in0.0 mm 0.00 in0.0 mm
01:00 PM 87.0°F30.6°C 55.0°F12.8°C 34% 4.6 mph WSW7.4 kmh WSW 10.0 mph16.1 kmh 29.95 in1014.2 mb 0.00 in0.0 mm 0.00 in0.0 mm 0.00 in0.0 mm
01:10 PM 87.4°F30.8°C 54.0°F12.2°C 32% 3.0 mph SW4.8 kmh SW 11.0 mph17.7 kmh 29.95 in1014.2 mb 0.00 in0.0 mm 0.00 in0.0 mm 0.00 in0.0 mm
01:20 PM 88.0°F31.1°C 55.0°F12.8°C 32% 3.1 mph SW5.0 kmh SW 7.0 mph11.3 kmh 29.94 in1013.9 mb 0.00 in0.0 mm 0.00 in0.0 mm 0.00 in0.0 mm
01:30 PM 88.5°F31.4°C 56.0°F13.3°C 33% 3.0 mph WSW4.8 kmh WSW 8.0 mph12.9 kmh 29.94 in1013.9 mb 0.00 in0.0 mm 0.00 in0.0 mm 0.00 in0.0 mm
01:40 PM 88.6°F31.4°C 55.0°F12.8°C 32% 2.2 mph WNW3.5 kmh WNW 8.0 mph12.9 kmh 29.94 in1013.9 mb 0.00 in0.0 mm 0.00 in0.0 mm 0.00 in0.0 mm
01:50 PM 88.0°F31.1°C 55.0°F12.8°C 32% 2.9 mph SSW4.7 kmh SSW 7.0 mph11.3 kmh 29.93 in1013.5 mb 0.00 in0.0 mm 0.00 in0.0 mm 0.00 in0.0 mm
02:00 PM 88.4°F31.3°C 55.0°F12.8°C 32% 3.5 mph SSW5.6 kmh SSW 9.0 mph14.5 kmh 29.93 in1013.5 mb 0.00 in0.0 mm 0.00 in0.0 mm 0.00 in0.0 mm
02:10 PM 88.3°F31.3°C 55.0°F12.8°C 32% 2.5 mph SW4.0 kmh SW 7.0 mph11.3 kmh 29.93 in1013.5 mb 0.00 in0.0 mm 0.00 in0.0 mm 0.00 in0.0 mm
02:20 PM 88.5°F31.4°C 54.0°F12.2°C 31% 3.0 mph S4.8 kmh S 8.0 mph12.9 kmh 29.92 in1013.2 mb 0.00 in0.0 mm 0.00 in0.0 mm 0.00 in0.0 mm
02:30 PM 88.9°F31.6°C 53.0°F11.7°C 29% 4.4 mph SW7.1 kmh SW 11.0 mph17.7 kmh 29.92 in1013.2 mb 0.00 in0.0 mm 0.00 in0.0 mm 0.00 in0.0 mm
02:40 PM 89.1°F31.7°C 54.0°F12.2°C 30% 3.1 mph W5.0 kmh W 11.0 mph17.7 kmh 29.92 in1013.2 mb 0.00 in0.0 mm 0.00 in0.0 mm 0.00 in0.0 mm
02:50 PM 88.9°F31.6°C 54.0°F12.2°C 30% 6.0 mph WSW9.7 kmh WSW 14.0 mph22.5 kmh 29.92 in1013.2 mb 0.00 in0.0 mm 0.00 in0.0 mm 0.00 in0.0 mm
03:00 PM 89.0°F31.7°C 54.0°F12.2°C 30% 4.3 mph SW6.9 kmh SW 10.0 mph16.1 kmh 29.91 in1012.9 mb 0.00 in0.0 mm 0.00 in0.0 mm 0.00 in0.0 mm
03:10 PM 88.6°F31.4°C 53.0°F11.7°C 30% 5.4 mph S8.7 kmh S 10.0 mph16.1 kmh 29.91 in1012.9 mb 0.00 in0.0 mm 0.00 in0.0 mm 0.00 in0.0 mm
03:20 PM 88.8°F31.6°C 54.0°F12.2°C 31% 3.5 mph SW5.6 kmh SW 9.0 mph14.5 kmh 29.91 in1012.9 mb 0.00 in0.0 mm 0.00 in0.0 mm 0.00 in0.0 mm
03:30 PM 89.0°F31.7°C 52.0°F11.1°C 28% 4.4 mph SSW7.1 kmh SSW 12.0 mph19.3 kmh 29.91 in1012.9 mb 0.00 in0.0 mm 0.00 in0.0 mm 0.00 in0.0 mm
03:40 PM 89.3°F31.8°C 51.0°F10.6°C 27% 5.0 mph SW8.0 kmh SW 10.0 mph16.1 kmh 29.90 in1012.5 mb 0.00 in0.0 mm 0.00 in0.0 mm 0.00 in0.0 mm
03:50 PM 89.4°F31.9°C 51.0°F10.6°C 27% 4.2 mph SW6.8 kmh SW 10.0 mph16.1 kmh 29.91 in1012.9 mb 0.00 in0.0 mm 0.00 in0.0 mm 0.00 in0.0 mm
04:00 PM 89.4°F31.9°C 49.0°F9.4°C 25% 3.3 mph SSE5.3 kmh SSE 10.0 mph16.1 kmh 29.91 in1012.9 mb 0.00 in0.0 mm 0.00 in0.0 mm 0.00 in0.0 mm
04:10 PM 89.1°F31.7°C 50.0°F10.0°C 26% 4.5 mph W7.2 kmh W 13.0 mph20.9 kmh 29.91 in1012.9 mb 0.00 in0.0 mm 0.00 in0.0 mm 0.00 in0.0 mm
04:20 PM 88.5°F31.4°C 48.0°F8.9°C 25% 3.6 mph SW5.8 kmh SW 9.0 mph14.5 kmh 29.91 in1012.9 mb 0.00 in0.0 mm 0.00 in0.0 mm 0.00 in0.0 mm
04:30 PM 88.4°F31.3°C 48.0°F8.9°C 25% 4.4 mph SW7.1 kmh SW 9.0 mph14.5 kmh 29.91 in1012.9 mb 0.00 in0.0 mm 0.00 in0.0 mm 0.00 in0.0 mm
04:40 PM 88.1°F31.2°C 48.0°F8.9°C 25% 2.7 mph SSW4.3 kmh SSW 7.0 mph11.3 kmh 29.91 in1012.9 mb 0.00 in0.0 mm 0.00 in0.0 mm 0.00 in0.0 mm
04:50 PM 87.8°F31.0°C 50.0°F10.0°C 27% 1.4 mph SSW2.3 kmh SSW 5.0 mph8.0 kmh 29.91 in1012.9 mb 0.00 in0.0 mm 0.00 in0.0 mm 0.00 in0.0 mm
05:00 PM 87.7°F30.9°C 49.0°F9.4°C 26% 1.1 mph NW1.8 kmh NW 5.0 mph8.0 kmh 29.91 in1012.9 mb 0.00 in0.0 mm 0.00 in0.0 mm 0.00 in0.0 mm
05:10 PM 87.2°F30.7°C 48.0°F8.9°C 26% 1.3 mph S2.1 kmh S 6.0 mph9.7 kmh 29.91 in1012.9 mb 0.00 in0.0 mm 0.00 in0.0 mm 0.00 in0.0 mm
05:20 PM 87.0°F30.6°C 50.0°F10.0°C 28% 1.4 mph SSW2.3 kmh SSW 7.0 mph11.3 kmh 29.91 in1012.9 mb 0.00 in0.0 mm 0.00 in0.0 mm 0.00 in0.0 mm
05:30 PM 86.8°F30.4°C 50.0°F10.0°C 28% 1.6 mph SSW2.6 kmh SSW 5.0 mph8.0 kmh 29.91 in1012.9 mb 0.00 in0.0 mm 0.00 in0.0 mm 0.00 in0.0 mm
05:40 PM 86.5°F30.3°C 50.0°F10.0°C 28% 0.6 mph SW1.0 kmh SW 5.0 mph8.0 kmh 29.91 in1012.9 mb 0.00 in0.0 mm 0.00 in0.0 mm 0.00 in0.0 mm
05:50 PM 86.0°F30.0°C 50.0°F10.0°C 29% 0.7 mph NW1.1 kmh NW 4.0 mph6.4 kmh 29.91 in1012.9 mb 0.00 in0.0 mm 0.00 in0.0 mm 0.00 in0.0 mm
06:00 PM 85.6°F29.8°C 48.0°F8.9°C 27% 1.2 mph SE1.9 kmh SE 5.0 mph8.0 kmh 29.91 in1012.9 mb 0.00 in0.0 mm 0.00 in0.0 mm 0.00 in0.0 mm
06:10 PM 85.1°F29.5°C 47.0°F8.3°C 26% 0.9 mph SW1.4 kmh SW 4.0 mph6.4 kmh 29.91 in1012.9 mb 0.00 in0.0 mm 0.00 in0.0 mm 0.00 in0.0 mm
06:20 PM 84.5°F29.2°C 46.0°F7.8°C 26% 0.4 mph SW0.6 kmh SW 2.0 mph3.2 kmh 29.91 in1012.9 mb 0.00 in0.0 mm 0.00 in0.0 mm 0.00 in0.0 mm
06:30 PM 83.7°F28.7°C 45.0°F7.2°C 26% Calm Calm 1.0 mph1.6 kmh 29.92 in1013.2 mb 0.00 in0.0 mm 0.00 in0.0 mm 0.00 in0.0 mm
06:40 PM 82.8°F28.2°C 46.0°F7.8°C 28% Calm Calm 1.0 mph1.6 kmh 29.92 in1013.2 mb 0.00 in0.0 mm 0.00 in0.0 mm 0.00 in0.0 mm
06:50 PM 82.0°F27.8°C 47.0°F8.3°C 29% Calm Calm 1.0 mph1.6 kmh 29.92 in1013.2 mb 0.00 in0.0 mm 0.00 in0.0 mm 0.00 in0.0 mm
07:00 PM 81.4°F27.4°C 47.0°F8.3°C 30% Calm Calm 1.0 mph1.6 kmh 29.93 in1013.5 mb 0.00 in0.0 mm 0.00 in0.0 mm 0.00 in0.0 mm
07:10 PM 80.8°F27.1°C 47.0°F8.3°C 31% Calm Calm 1.0 mph1.6 kmh 29.93 in1013.5 mb 0.00 in0.0 mm 0.00 in0.0 mm 0.00 in0.0 mm
07:20 PM 80.2°F26.8°C 49.0°F9.4°C 33% Calm Calm 1.0 mph1.6 kmh 29.93 in1013.5 mb 0.00 in0.0 mm 0.00 in0.0 mm 0.00 in0.0 mm
07:30 PM 79.8°F26.6°C 48.0°F8.9°C 33% Calm Calm 1.0 mph1.6 kmh 29.93 in1013.5 mb 0.00 in0.0 mm 0.00 in0.0 mm 0.00 in0.0 mm
07:40 PM 79.3°F26.3°C 49.0°F9.4°C 34% 0.1 mph SW0.2 kmh SW 1.0 mph1.6 kmh 29.94 in1013.9 mb 0.00 in0.0 mm 0.00 in0.0 mm 0.00 in0.0 mm
07:50 PM 79.5°F26.4°C 48.0°F8.9°C 33% 0.3 mph NE0.5 kmh NE 2.0 mph3.2 kmh 29.94 in1013.9 mb 0.00 in0.0 mm 0.00 in0.0 mm 0.00 in0.0 mm
08:00 PM 79.0°F26.1°C 48.0°F8.9°C 34% 0.1 mph NE0.2 kmh NE 1.0 mph1.6 kmh 29.94 in1013.9 mb 0.00 in0.0 mm 0.00 in0.0 mm 0.00 in0.0 mm
08:10 PM 78.4°F25.8°C 49.0°F9.4°C 35% 0.3 mph NE0.5 kmh NE 2.0 mph3.2 kmh 29.94 in1013.9 mb 0.00 in0.0 mm 0.00 in0.0 mm 0.00 in0.0 mm
08:20 PM 78.4°F25.8°C 48.0°F8.9°C 34% 0.5 mph N0.8 kmh N 2.0 mph3.2 kmh 29.95 in1014.2 mb 0.00 in0.0 mm 0.00 in0.0 mm 0.00 in0.0 mm
08:30 PM 77.9°F25.5°C 48.0°F8.9°C 35% 0.2 mph N0.3 kmh N 1.0 mph1.6 kmh 29.95 in1014.2 mb 0.00 in0.0 mm 0.00 in0.0 mm 0.00 in0.0 mm
08:40 PM 77.4°F25.2°C 49.0°F9.4°C 37% 0.1 mph NNE0.2 kmh NNE 1.0 mph1.6 kmh 29.95 in1014.2 mb 0.00 in0.0 mm 0.00 in0.0 mm 0.00 in0.0 mm
08:50 PM 76.3°F24.6°C 48.0°F8.9°C 37% 0.2 mph NNE0.3 kmh NNE 1.0 mph1.6 kmh 29.95 in1014.2 mb 0.00 in0.0 mm 0.00 in0.0 mm 0.00 in0.0 mm
09:00 PM 76.3°F24.6°C 47.0°F8.3°C 36% 0.1 mph NNE0.2 kmh NNE 1.0 mph1.6 kmh 29.96 in1014.6 mb 0.00 in0.0 mm 0.00 in0.0 mm 0.00 in0.0 mm
09:10 PM 76.1°F24.5°C 46.0°F7.8°C 35% 0.1 mph NNE0.2 kmh NNE 1.0 mph1.6 kmh 29.96 in1014.6 mb 0.00 in0.0 mm 0.00 in0.0 mm 0.00 in0.0 mm
09:20 PM 76.1°F24.5°C 46.0°F7.8°C 34% 0.1 mph NNE0.2 kmh NNE 1.0 mph1.6 kmh 29.96 in1014.6 mb 0.00 in0.0 mm 0.00 in0.0 mm 0.00 in0.0 mm
09:30 PM 75.5°F24.2°C 47.0°F8.3°C 36% 0.2 mph N0.3 kmh N 2.0 mph3.2 kmh 29.96 in1014.6 mb 0.00 in0.0 mm 0.00 in0.0 mm 0.00 in0.0 mm
09:40 PM 75.2°F24.0°C 48.0°F8.9°C 38% 0.4 mph NE0.6 kmh NE 2.0 mph3.2 kmh 29.96 in1014.6 mb 0.00 in0.0 mm 0.00 in0.0 mm 0.00 in0.0 mm
09:50 PM 75.7°F24.3°C 45.0°F7.2°C 34% 1.5 mph NNE2.4 kmh NNE 3.0 mph4.8 kmh 29.96 in1014.6 mb 0.00 in0.0 mm 0.00 in0.0 mm 0.00 in0.0 mm
10:00 PM 76.2°F24.6°C 45.0°F7.2°C 33% 1.0 mph NNE1.6 kmh NNE 2.0 mph3.2 kmh 29.96 in1014.6 mb 0.00 in0.0 mm 0.00 in0.0 mm 0.00 in0.0 mm
10:10 PM 75.4°F24.1°C 45.0°F7.2°C 34% 1.1 mph N1.8 kmh N 3.0 mph4.8 kmh 29.97 in1014.9 mb 0.00 in0.0 mm 0.00 in0.0 mm 0.00 in0.0 mm
10:20 PM 74.9°F23.8°C 45.0°F7.2°C 35% 1.8 mph NE2.9 kmh NE 4.0 mph6.4 kmh 29.97 in1014.9 mb 0.00 in0.0 mm 0.00 in0.0 mm 0.00 in0.0 mm
10:30 PM 75.4°F24.1°C 46.0°F7.8°C 35% 1.3 mph N2.1 kmh N 4.0 mph6.4 kmh 29.97 in1014.9 mb 0.00 in0.0 mm 0.00 in0.0 mm 0.00 in0.0 mm
10:40 PM 74.1°F23.4°C 47.0°F8.3°C 38% 0.7 mph N1.1 kmh N 2.0 mph3.2 kmh 29.96 in1014.6 mb 0.00 in0.0 mm 0.00 in0.0 mm 0.00 in0.0 mm
10:50 PM 73.2°F22.9°C 47.0°F8.3°C 39% 2.1 mph NNE3.4 kmh NNE 4.0 mph6.4 kmh 29.96 in1014.6 mb 0.00 in0.0 mm 0.00 in0.0 mm 0.00 in0.0 mm
11:00 PM 73.6°F23.1°C 47.0°F8.3°C 39% 1.9 mph NNE3.1 kmh NNE 4.0 mph6.4 kmh 29.97 in1014.9 mb 0.00 in0.0 mm 0.00 in0.0 mm 0.00 in0.0 mm
11:10 PM 72.6°F22.6°C 47.0°F8.3°C 40% 1.6 mph N2.6 kmh N 4.0 mph6.4 kmh 29.97 in1014.9 mb 0.00 in0.0 mm 0.00 in0.0 mm 0.00 in0.0 mm
11:20 PM 72.3°F22.4°C 48.0°F8.9°C 42% 2.1 mph NNE3.4 kmh NNE 4.0 mph6.4 kmh 29.98 in1015.2 mb 0.00 in0.0 mm 0.00 in0.0 mm 0.00 in0.0 mm
11:30 PM 71.9°F22.2°C 48.0°F8.9°C 43% 2.9 mph NNE4.7 kmh NNE 5.0 mph8.0 kmh 29.98 in1015.2 mb 0.00 in0.0 mm 0.00 in0.0 mm 0.00 in0.0 mm
11:40 PM 72.0°F22.2°C 48.0°F8.9°C 42% 3.0 mph NNE4.8 kmh NNE 5.0 mph8.0 kmh 29.98 in1015.2 mb 0.00 in0.0 mm 0.00 in0.0 mm 0.00 in0.0 mm
11:50 PM 72.5°F22.5°C 47.0°F8.3°C 40% 3.1 mph NNE5.0 kmh NNE 7.0 mph11.3 kmh 29.98 in1015.2 mb 0.00 in0.0 mm 0.00 in0.0 mm 0.00 in0.0 mm